• Join FlightAware (Why Join?)
  • Login
  • US Flag 
09:47AM EDT


 

Airport Tracker/Info


-or-


 

Live Flight TrackerFlight Track Log ✈ AAL2007 ✈ 21-Jun-2013 ✈ KORD - KAUS

Flight Track Log - Related Links

Times and Time Zones

All times are in EDT time to prevent confusion due to time zone crossing. See the AAL2007 flight status page for this flight to view local times or setup timezone preferences in your user account.

Time Position Orientation Groundspeed Altitude Reporting Facility
EDT Latitude Longitude Course Direction KTS MPH feet Rate Location/Type
06:57PM 41.9333 -87.9167 253° West 178 205 2,000  Level Chicago TRACON
06:58PM 41.9000 -87.9667 228° Southwest 225 259 4,400 2,820 Climbing Chicago TRACON
06:59PM 41.8833 -88.0667 257° West 255 293 7,700 3,180 Climbing Chicago TRACON
07:00PM 41.8782 -88.3296 242° Southwest  Level FlightAware Approximate
07:00PM 41.8667 -88.1667 257° West 251 289 10,800  Level Chicago TRACON
07:01PM 41.8363 -88.4685 255° West  Level FlightAware Approximate
07:02PM 41.8047 -88.6131 254° West  Level FlightAware Approximate
07:02PM 41.8625 -88.2753 267° West 274 315 13,600  Level Chicago Center
07:03PM 41.7738 -88.7525 253° West  Level FlightAware Approximate
07:03PM 41.8392 -88.3842 254° West 299 344 16,000  Level Chicago Center
07:04PM 41.8092 -88.5217 254° West 322 371 18,600 1,920 Climbing Chicago Center
07:05PM 41.7828 -88.6400 253° West 332 382 20,100 1,260 Climbing Chicago Center
07:06PM 41.7531 -88.7731 253° West 370 426 21,300 1,740 Climbing Chicago Center
07:07PM 41.7219 -88.9117 253° West 390 449 23,800 2,220 Climbing Chicago Center
07:08PM 41.6867 -89.0728 254° West 384 442 25,900 1,560 Climbing Chicago Center
07:09PM 41.6550 -89.2114 253° West 391 450 27,100 1,140 Climbing Chicago Center
07:10PM 41.6228 -89.3531 253° West 399 459 28,300 960 Climbing Chicago Center
07:11PM 41.5900 -89.4947 253° West 402 463 29,200 840 Climbing Chicago Center
07:12PM 41.5550 -89.6536 254° West 411 473 30,100 840 Climbing Chicago Center
07:13PM 41.5206 -89.8008 253° West 416 479 31,000 840 Climbing Chicago Center
07:14PM 41.4858 -89.9503 253° West 422 486 31,900 780 Climbing Chicago Center
07:15PM 41.4514 -90.0986 253° West 422 486 32,700 720 Climbing Chicago Center
07:16PM 41.4092 -90.2769 253° West 424 488 33,400 600 Climbing Chicago Center
07:17PM 41.3736 -90.4258 252° West 423 487 34,000 240 Climbing Chicago Center
07:18PM 41.3392 -90.5703 252° West 414 476 34,000  Level Chicago Center
07:19PM 41.2833 -90.7064 241° Southwest 433 498 34,000  Level Chicago Center
07:20PM 41.2061 -90.8150 227° Southwest 413 475 34,000  Level Chicago Center
07:21PM 41.1006 -90.9292 219° Southwest 410 472 34,000  Level Chicago Center
07:22PM 41.0094 -91.0217 217° Southwest 412 474 34,000  Level Chicago Center
07:23PM 40.9192 -91.1125 217° Southwest 411 473 34,000  Level Chicago Center
07:24PM 40.8228 -91.1953 213° Southwest 412 474 34,000  Level Chicago Center
07:25PM 40.7244 -91.2733 211° Southwest 413 475 34,000  Level Chicago Center
07:27PM 40.6194 -91.3611 212° Southwest 416 479 34,000  Level Chicago Center
07:28PM 40.5233 -91.4433 213° Southwest 416 479 34,000  Level Chicago Center
07:29PM 40.4269 -91.5236 212° Southwest 414 476 34,000  Level Chicago Center
07:30PM 40.3111 -91.6228 213° Southwest 415 478 34,000  Level Chicago Center
07:31PM 40.2136 -91.7042 213° Southwest 417 480 34,000  Level Kansas City Center
07:32PM 40.1158 -91.7853 212° Southwest 416 479 34,000  Level Kansas City Center
07:33PM 40.0183 -91.8669 213° Southwest 418 481 34,000  Level Kansas City Center
07:34PM 39.9219 -91.9481 213° Southwest 415 478 34,000  Level Kansas City Center
07:35PM 39.8247 -92.0292 213° Southwest 415 478 34,000  Level Kansas City Center
07:36PM 39.7100 -92.1231 212° Southwest 410 472 34,000  Level Kansas City Center
07:37PM 39.6122 -92.2033 212° Southwest 414 476 34,000  Level Kansas City Center
07:38PM 39.5067 -92.2906 213° Southwest 416 479 34,000  Level Kansas City Center
07:39PM 39.4164 -92.3636 212° Southwest 420 483 34,000  Level Kansas City Center
07:40PM 39.3186 -92.4439 212° Southwest 419 482 34,000  Level Kansas City Center
07:41PM 39.2086 -92.5347 213° Southwest 417 480 34,000  Level Kansas City Center
07:42PM 39.1097 -92.6164 213° Southwest 419 482 34,000  Level Kansas City Center
07:43PM 39.0100 -92.6950 211° Southwest 420 483 34,000  Level Kansas City Center
07:44PM 38.9108 -92.7778 213° Southwest 423 487 34,000  Level Kansas City Center
07:45PM 38.7914 -92.8719 212° Southwest 421 484 34,000  Level Kansas City Center
07:46PM 38.6914 -92.9508 212° Southwest 422 486 34,000  Level Kansas City Center
07:47PM 38.5917 -93.0289 211° Southwest 421 484 34,000  Level Kansas City Center
07:48PM 38.4922 -93.1075 212° Southwest 421 484 34,000  Level Kansas City Center
07:49PM 38.3931 -93.1856 212° Southwest 419 482 34,000  Level Kansas City Center
07:50PM 38.2719 -93.2806 212° Southwest 425 489 34,000  Level Kansas City Center
07:51PM 38.1722 -93.3594 212° Southwest 425 489 34,000  Level Kansas City Center
07:52PM 38.0739 -93.4361 212° Southwest 419 482 34,000  Level Kansas City Center
07:53PM 37.9744 -93.5136 212° Southwest 420 483 34,000  Level Kansas City Center
07:54PM 37.8744 -93.5919 212° Southwest 422 486 34,000  Level Kansas City Center
07:55PM 37.7747 -93.6692 211° Southwest 421 484 34,000  Level Kansas City Center
07:56PM 37.6536 -93.7625 211° Southwest 424 488 34,000  Level Kansas City Center
07:58PM 37.5547 -93.8356 210° Southwest 416 479 34,000  Level Kansas City Center
07:59PM 37.4569 -93.9133 212° Southwest 416 479 34,000  Level Kansas City Center
08:00PM 37.3578 -93.9886 211° Southwest 416 479 34,000  Level Kansas City Center
08:01PM 37.2583 -94.0636 211° Southwest 416 479 34,000  Level Kansas City Center
08:02PM 37.1439 -94.1508 211° Southwest 416 479 34,000  Level Kansas City Center
08:03PM 37.0456 -94.2256 211° Southwest 414 476 34,000  Level Kansas City Center
08:04PM 36.9464 -94.3008 211° Southwest 414 476 34,000  Level Kansas City Center
08:05PM 36.8467 -94.3739 210° Southwest 413 475 34,000  Level Kansas City Center
08:06PM 36.7492 -94.4475 211° Southwest 411 473 34,000  Level Kansas City Center
08:07PM 36.6514 -94.5211 211° Southwest 409 471 34,000  Level Kansas City Center
08:08PM 36.5331 -94.6089 211° Southwest 409 471 34,000  Level Kansas City Center
08:09PM 36.4336 -94.6819 211° Southwest 410 472 34,000  Level Kansas City Center
08:10PM 36.3353 -94.7564 211° Southwest 411 473 34,000  Level Kansas City Center
08:11PM 36.2356 -94.8300 211° Southwest 413 475 34,000  Level Kansas City Center
08:12PM 36.1350 -94.9033 211° Southwest 415 478 34,000  Level Kansas City Center
08:13PM 36.0356 -94.9764 211° Southwest 413 475 34,000  Level Kansas City Center
08:14PM 35.9364 -95.0494 211° Southwest 413 475 34,000  Level Kansas City Center
08:15PM 35.8375 -95.1208 210° Southwest 411 473 34,000  Level Kansas City Center
08:16PM 35.7172 -95.2081 210° Southwest 413 475 34,000  Level Kansas City Center
08:17PM 35.6117 -95.2706 206° Southwest 418 481 34,000  Level Kansas City Center
08:18PM 35.5044 -95.3256 203° Southwest 415 478 34,000  Level Kansas City Center
08:20PM 35.3319 -95.4161 203° Southwest 415 478 34,000  Level Fort Worth Center
08:21PM 35.2244 -95.4719 203° Southwest 415 478 34,000  Level Fort Worth Center
08:22PM 35.1231 -95.5275 204° Southwest 415 478 34,000  Level Fort Worth Center
08:23PM 35.0175 -95.5806 202° Southwest 415 478 34,000  Level Fort Worth Center
08:24PM 34.9139 -95.6361 204° Southwest 415 478 34,000  Level Fort Worth Center
08:25PM 34.8083 -95.6914 203° Southwest 415 478 34,000  Level Fort Worth Center
08:26PM 34.7028 -95.7439 202° Southwest 415 478 34,000  Level Fort Worth Center
08:27PM 34.5992 -95.8014 205° Southwest 415 478 34,000  Level Fort Worth Center
08:28PM 34.4933 -95.8539 202° Southwest 415 478 34,000  Level Fort Worth Center
08:29PM 34.3897 -95.9086 204° Southwest 415 478 34,000  Level Fort Worth Center
08:30PM 34.2819 -95.9658 204° Southwest 415 478 34,000  Level Fort Worth Center
08:31PM 34.1781 -96.0178 202° Southwest 415 478 34,000  Level Fort Worth Center
08:32PM 34.0889 -96.0642 203° Southwest 406 467 34,000  Level Fort Worth Center
08:33PM 33.9808 -96.1161 202° Southwest 406 467 34,000  Level Fort Worth Center
08:34PM 33.8772 -96.1725 204° Southwest 412 474 34,000  Level Fort Worth Center
08:35PM 33.7631 -96.2292 202° Southwest 412 474 34,000  Level Fort Worth Center
08:36PM 33.6569 -96.2831 203° Southwest 412 474 34,000  Level Fort Worth Center
08:37PM 33.5489 -96.3367 202° Southwest 412 474 34,000  Level Fort Worth Center
08:38PM 33.4450 -96.3903 203° Southwest 412 474 34,000  Level Fort Worth Center
08:39PM 33.3389 -96.4411 202° Southwest 417 480 34,000  Level Fort Worth Center
08:40PM 33.2331 -96.4969 204° Southwest 417 480 34,000  Level Fort Worth Center
08:41PM 33.1269 -96.5478 202° Southwest 417 480 34,000  Level Fort Worth Center
08:42PM 33.0228 -96.6008 203° Southwest 417 480 34,000  Level Fort Worth Center
08:43PM 32.9167 -96.6536 203° Southwest 417 480 34,000  Level Fort Worth Center
08:44PM 32.8125 -96.7064 203° Southwest 417 480 34,000 -540 Level Fort Worth Center
08:45PM 32.7022 -96.7469 197° South 417 480 33,000 -1,020 Descending Fort Worth Center
08:46PM 32.5897 -96.7822 195° South 417 480 32,000 -1,020 Descending Fort Worth Center
08:47PM 32.4769 -96.8150 194° South 417 480 31,000 -1,020 Descending Fort Worth Center
08:48PM 32.3625 -96.8550 196° South 417 480 30,000 -960 Descending Fort Worth Center
08:49PM 32.2456 -96.8925 195° South 427 491 29,100 -960 Descending Fort Worth Center
08:50PM 32.1289 -96.9253 193° South 432 497 28,100 -900 Descending Fort Worth Center
08:51PM 32.0142 -96.9625 195° South 432 497 27,300 -840 Descending Fort Worth Center
08:52PM 31.9017 -96.9997 196° South 421 484 26,500 -780 Descending Fort Worth Center
08:53PM 31.8072 -97.0272 194° South 422 486 25,900 -780 Descending Houston Center
08:54PM 31.6936 -97.0614 194° South 418 481 25,100 -840 Descending Houston Center
08:55PM 31.5817 -97.0969 195° South 413 475 24,200 -840 Descending Houston Center
08:56PM 31.4692 -97.1308 194° South 413 475 23,400 -780 Descending Houston Center
08:57PM 31.3592 -97.1644 195° South 408 470 22,600 -1,380 Descending Houston Center
08:58PM 31.2517 -97.2064 198° South 404 465 20,600 -2,100 Descending Houston Center
08:59PM 31.1269 -97.2514 197° South 400 460 18,300 -2,100 Descending Houston Center
09:00PM 31.0261 -97.2889 198° South 387 445 16,400 -1,980 Descending Houston Center
09:01PM 30.9286 -97.3239 197° South 376 433 14,300 -1,680 Descending Houston Center
09:02PM 30.8331 -97.3575 197° South 368 423 13,000 -660 Descending Houston Center
09:03PM 30.7408 -97.3917 198° South 351 404 13,000 -360 Level Houston Center
09:04PM 30.6386 -97.4553 208° Southwest 358 412 12,300 -1,080 Descending Houston Center
09:05PM 30.5594 -97.5181 214° Southwest 346 398 10,900 -1,200 Descending Houston Center
09:06PM 30.4894 -97.5772 216° Southwest 315 362 9,900 -900 Descending Houston Center
09:07PM 30.4703 -97.6558 254° West 259 298 9,100 -1,320 Descending Houston Center
09:08PM 30.4594 -97.7314 261° West 240 276 7,200 -1,800 Descending Houston Center
09:09PM 30.4297 -97.7919 240° Southwest 235 270 5,500 -1,680 Descending Houston Center
09:10PM 30.3733 -97.7972 185° South 220 253 3,800 -1,320 Descending Houston Center
09:11PM 30.3547 -97.7311 108° East 218 251 2,900 -900 Descending Houston Center